createdAt,value
2019-03-26T00:01:39.419Z,86.24
2019-03-26T00:04:07.968Z,86.06
2019-03-26T00:06:36.693Z,85.93
2019-03-26T00:09:07.883Z,85.70
2019-03-26T00:11:36.224Z,85.47
2019-03-26T00:14:05.055Z,85.35
2019-03-26T00:16:33.536Z,85.11
2019-03-26T00:19:02.150Z,85.00
2019-03-26T00:21:32.257Z,84.87
2019-03-26T00:24:00.827Z,84.63
2019-03-26T00:26:29.804Z,84.37
2019-03-26T00:28:58.286Z,84.24
2019-03-26T00:31:26.749Z,84.03
2019-03-26T00:33:55.511Z,83.65
2019-03-26T00:36:24.352Z,83.38
2019-03-26T00:38:52.815Z,82.93
2019-03-26T00:41:21.633Z,82.37
2019-03-26T00:43:50.263Z,82.23
2019-03-26T00:46:18.750Z,82.00
2019-03-26T00:52:17.354Z,81.30
2019-03-26T00:54:45.832Z,80.65
2019-03-26T00:57:14.300Z,80.81
2019-03-26T00:59:43.226Z,80.29
2019-03-26T01:02:11.848Z,79.73
2019-03-26T01:04:40.343Z,79.44
2019-03-26T01:07:09.073Z,79.40
2019-03-26T01:09:37.553Z,79.12
2019-03-26T01:12:06.011Z,78.81
2019-03-26T01:14:34.685Z,78.64
2019-03-26T01:17:03.156Z,78.82
2019-03-26T01:19:31.632Z,78.72
2019-03-26T01:22:00.327Z,78.50
2019-03-26T01:24:28.830Z,78.46
2019-03-26T01:26:57.326Z,78.30
2019-03-26T01:29:25.999Z,78.33
2019-03-26T01:31:54.601Z,78.08
2019-03-26T01:34:23.095Z,77.67
2019-03-26T01:36:51.853Z,77.73
2019-03-26T01:39:20.326Z,77.40
2019-03-26T01:41:48.813Z,77.35
2019-03-26T01:44:17.702Z,77.44
2019-03-26T01:46:46.178Z,77.19
2019-03-26T01:49:14.648Z,76.96
2019-03-26T01:51:43.147Z,77.00
2019-03-26T01:54:11.614Z,77.00
2019-03-26T01:56:40.094Z,76.99
2019-03-26T01:59:08.609Z,77.06
2019-03-26T02:01:37.092Z,76.91
2019-03-26T02:04:05.557Z,76.75
2019-03-26T02:06:34.067Z,76.93
2019-03-26T02:09:02.953Z,76.98
2019-03-26T02:11:31.438Z,77.03
2019-03-26T02:14:01.606Z,77.20
2019-03-26T02:16:30.077Z,77.28
2019-03-26T02:18:58.638Z,77.62
2019-03-26T02:21:27.388Z,77.86
2019-03-26T02:23:57.250Z,77.97
2019-03-26T02:26:26.749Z,78.17
2019-03-26T02:28:56.835Z,78.17
2019-03-26T02:31:25.304Z,78.22
2019-03-26T02:33:53.817Z,78.38
2019-03-26T02:36:23.956Z,78.41
2019-03-26T02:38:53.957Z,78.42
2019-03-26T02:41:22.825Z,78.33
2019-03-26T02:43:51.497Z,78.35
2019-03-26T02:46:20.046Z,78.38
2019-03-26T02:48:48.599Z,78.34
2019-03-26T02:51:17.108Z,78.31
2019-03-26T02:53:45.597Z,78.23
2019-03-26T02:56:14.129Z,78.31
2019-03-26T02:58:42.701Z,78.25
2019-03-26T03:01:11.193Z,78.24
2019-03-26T03:03:39.938Z,78.31
2019-03-26T03:06:08.452Z,78.39
2019-03-26T03:08:36.994Z,78.73
2019-03-26T03:11:05.479Z,78.88
2019-03-26T03:13:34.431Z,79.03
2019-03-26T03:16:03.156Z,79.22
2019-03-26T03:18:31.623Z,79.54
2019-03-26T03:21:00.361Z,79.56
2019-03-26T03:23:29.055Z,79.56
2019-03-26T03:25:57.682Z,79.57
2019-03-26T03:28:26.219Z,79.67
2019-03-26T03:30:54.848Z,79.83
2019-03-26T03:33:23.334Z,79.81
2019-03-26T03:35:53.212Z,79.90
2019-03-26T03:38:21.800Z,79.75
2019-03-26T03:40:50.278Z,79.88
2019-03-26T03:43:18.865Z,79.99
2019-03-26T03:45:47.738Z,80.08
2019-03-26T03:48:16.369Z,80.14
2019-03-26T03:50:46.444Z,80.14
2019-03-26T03:53:18.059Z,80.03
2019-03-26T03:55:48.090Z,80.00
2019-03-26T03:58:17.203Z,80.10
2019-03-26T04:00:45.754Z,80.24
2019-03-26T04:03:14.316Z,80.47
2019-03-26T04:05:42.919Z,80.66
2019-03-26T04:08:11.395Z,80.54
2019-03-26T04:10:39.946Z,80.56
2019-03-26T04:13:08.619Z,80.81
2019-03-26T04:15:41.856Z,80.85
2019-03-26T04:18:10.330Z,80.72
2019-03-26T04:20:38.882Z,80.91
2019-03-26T04:23:07.346Z,80.82
2019-03-26T04:25:35.825Z,80.72
2019-03-26T04:28:04.927Z,80.70
2019-03-26T04:30:34.040Z,80.75
2019-03-26T04:33:02.494Z,80.80
2019-03-26T04:35:31.056Z,80.93
2019-03-26T04:37:59.514Z,80.95
2019-03-26T04:40:28.303Z,81.29
2019-03-26T04:42:57.088Z,81.50
2019-03-26T04:45:25.585Z,81.51
2019-03-26T04:47:54.180Z,81.75
2019-03-26T04:50:22.658Z,81.76
2019-03-26T04:52:51.145Z,81.77
2019-03-26T04:55:19.629Z,81.79
2019-03-26T04:57:48.427Z,81.53
2019-03-26T05:00:17.714Z,81.06
2019-03-26T05:02:46.495Z,79.87
2019-03-26T05:05:15.033Z,80.04
2019-03-26T05:07:43.496Z,79.94
2019-03-26T05:10:12.512Z,79.96
2019-03-26T05:12:41.034Z,80.33
2019-03-26T05:15:09.894Z,80.20
2019-03-26T05:17:38.401Z,80.31
2019-03-26T05:20:07.970Z,80.50
2019-03-26T05:22:36.803Z,80.81
2019-03-26T05:25:07.290Z,80.68
2019-03-26T05:27:45.196Z,80.84
2019-03-26T05:30:08.379Z,80.94
2019-03-26T05:32:37.136Z,81.07
2019-03-26T05:35:06.902Z,81.24
2019-03-26T05:37:35.368Z,81.35
2019-03-26T05:40:05.443Z,81.74
2019-03-26T05:42:34.523Z,81.61
2019-03-26T05:45:03.078Z,81.91
2019-03-26T05:47:31.555Z,82.10
2019-03-26T05:50:00.347Z,82.12
2019-03-26T05:52:29.238Z,81.97
2019-03-26T05:54:57.702Z,81.79
2019-03-26T05:57:26.230Z,81.41
2019-03-26T05:59:54.703Z,80.99
2019-03-26T06:02:23.180Z,80.52
2019-03-26T06:04:51.707Z,79.80
2019-03-26T06:07:20.167Z,78.74
2019-03-26T06:09:48.639Z,78.40
2019-03-26T06:12:17.151Z,77.92
2019-03-26T06:14:45.984Z,77.67
2019-03-26T06:17:14.450Z,77.58
2019-03-26T06:19:42.981Z,77.07
2019-03-26T06:22:11.675Z,76.95
2019-03-26T06:24:40.149Z,76.70
2019-03-26T06:27:08.829Z,76.25
2019-03-26T06:29:37.306Z,76.19
2019-03-26T06:32:05.955Z,76.25
2019-03-26T06:34:34.521Z,76.15
2019-03-26T06:37:02.986Z,76.07
2019-03-26T06:39:31.855Z,76.17
2019-03-26T06:42:00.743Z,75.90
2019-03-26T06:44:29.213Z,75.53
2019-03-26T06:46:57.882Z,75.23
2019-03-26T06:49:26.412Z,74.97
2019-03-26T06:51:54.891Z,75.06
2019-03-26T06:54:23.359Z,75.22
2019-03-26T06:56:52.258Z,75.29
2019-03-26T06:59:20.718Z,75.40
2019-03-26T07:01:49.470Z,75.66
2019-03-26T07:04:17.981Z,75.73
2019-03-26T07:06:46.487Z,75.67
2019-03-26T07:09:14.959Z,75.63
2019-03-26T07:11:43.970Z,75.42
2019-03-26T07:14:12.789Z,75.56
2019-03-26T07:16:41.261Z,75.45
2019-03-26T07:19:09.799Z,75.38
2019-03-26T07:21:49.105Z,75.44
2019-03-26T07:24:08.796Z,75.11
2019-03-26T07:26:37.706Z,74.41
2019-03-26T07:29:06.172Z,74.39
2019-03-26T07:31:34.648Z,74.27
2019-03-26T07:34:03.575Z,73.91
2019-03-26T07:36:32.136Z,73.59
2019-03-26T07:39:00.628Z,73.77
2019-03-26T07:41:29.125Z,73.94
2019-03-26T07:43:57.607Z,74.11
2019-03-26T07:46:26.099Z,74.44
2019-03-26T07:48:56.112Z,74.60
2019-03-26T07:51:24.593Z,74.15
2019-03-26T07:53:53.149Z,74.23
2019-03-26T07:56:21.681Z,74.06
2019-03-26T07:58:50.155Z,73.84
2019-03-26T08:01:18.694Z,73.56
2019-03-26T08:03:47.616Z,73.44
2019-03-26T08:06:16.267Z,72.98
2019-03-26T08:08:44.751Z,72.89
2019-03-26T08:11:13.260Z,73.02
2019-03-26T08:13:41.741Z,72.94
2019-03-26T08:16:10.405Z,72.68
2019-03-26T08:18:38.988Z,72.47
2019-03-26T08:21:07.468Z,71.84
2019-03-26T08:23:38.349Z,71.86
2019-03-26T08:26:06.385Z,71.67
2019-03-26T08:28:34.853Z,70.85
2019-03-26T08:31:03.534Z,71.03
2019-03-26T08:33:32.123Z,71.18
2019-03-26T08:36:00.584Z,71.30
2019-03-26T08:38:29.136Z,71.22
2019-03-26T08:40:57.641Z,70.83
2019-03-26T08:43:26.122Z,70.76
2019-03-26T08:45:54.667Z,70.04
2019-03-26T08:48:23.252Z,69.65
2019-03-26T08:50:51.971Z,69.18
2019-03-26T08:53:20.470Z,68.37
2019-03-26T08:55:49.403Z,67.37
2019-03-26T08:58:17.959Z,67.04
2019-03-26T09:00:46.442Z,67.46
2019-03-26T09:03:14.951Z,68.30
2019-03-26T09:05:43.428Z,69.81
2019-03-26T09:08:24.462Z,71.69
2019-03-26T09:10:51.739Z,72.25
2019-03-26T09:13:12.849Z,73.22
2019-03-26T09:15:41.344Z,74.88
2019-03-26T09:18:10.041Z,75.71
2019-03-26T09:20:38.597Z,75.97
2019-03-26T09:23:07.244Z,76.34
2019-03-26T09:25:35.986Z,76.89
2019-03-26T09:28:04.739Z,77.67
2019-03-26T09:30:33.217Z,77.47
2019-03-26T09:33:01.736Z,77.06
2019-03-26T09:35:30.197Z,75.85
2019-03-26T09:37:58.893Z,75.43
2019-03-26T09:40:27.494Z,74.85
2019-03-26T09:42:56.028Z,74.04
2019-03-26T09:45:24.505Z,72.20
2019-03-26T09:47:53.421Z,71.84
2019-03-26T09:50:36.451Z,70.29
2019-03-26T09:53:05.715Z,67.81
2019-03-26T09:55:34.379Z,68.27
2019-03-26T09:58:03.124Z,68.21
2019-03-26T10:00:31.868Z,67.90
2019-03-26T10:03:00.293Z,67.15
2019-03-26T10:05:28.857Z,67.08
2019-03-26T10:07:57.538Z,66.98
2019-03-26T10:10:26.007Z,66.84
2019-03-26T10:12:54.505Z,66.03
2019-03-26T10:15:23.483Z,65.51
2019-03-26T10:17:52.221Z,64.73
2019-03-26T10:20:22.092Z,64.92
2019-03-26T10:22:50.839Z,64.77
2019-03-26T10:25:19.355Z,64.03
2019-03-26T10:27:47.967Z,63.31
2019-03-26T10:30:21.196Z,62.80
2019-03-26T10:32:49.673Z,63.32
2019-03-26T10:35:18.325Z,64.04
2019-03-26T10:37:46.996Z,64.77
2019-03-26T10:40:18.545Z,65.30
2019-03-26T10:42:46.990Z,65.60
2019-03-26T10:45:15.791Z,66.14
2019-03-26T10:47:44.423Z,66.33
2019-03-26T10:50:13.280Z,66.20
2019-03-26T10:52:42.450Z,66.01
2019-03-26T10:55:11.050Z,64.72
2019-03-26T10:57:39.534Z,63.52
2019-03-26T11:00:08.586Z,62.54
2019-03-26T11:02:37.054Z,61.17
2019-03-26T11:05:06.975Z,59.49
2019-03-26T11:07:35.565Z,58.67
2019-03-26T11:10:06.372Z,58.21
2019-03-26T11:12:34.906Z,57.26
2019-03-26T11:15:05.320Z,54.64
2019-03-26T11:17:34.176Z,55.35
2019-03-26T11:20:02.942Z,55.91
2019-03-26T11:22:31.459Z,55.61
2019-03-26T11:24:59.957Z,55.26
2019-03-26T11:27:28.385Z,54.02
2019-03-26T11:29:56.897Z,54.19
2019-03-26T11:32:26.332Z,54.79
2019-03-26T11:34:54.833Z,54.92
2019-03-26T11:37:23.909Z,55.89
2019-03-26T11:39:52.405Z,56.82
2019-03-26T11:42:21.066Z,57.87
2019-03-26T11:44:49.783Z,59.02
2019-03-26T11:47:18.261Z,60.63
2019-03-26T11:49:46.775Z,61.37
2019-03-26T11:52:15.615Z,62.68
2019-03-26T11:54:44.091Z,63.55
2019-03-26T11:57:12.583Z,64.23
2019-03-26T11:59:41.470Z,64.86
2019-03-26T12:02:11.369Z,65.07
2019-03-26T12:04:40.026Z,65.27
2019-03-26T12:07:08.756Z,66.30
2019-03-26T12:09:46.041Z,66.80
2019-03-26T12:12:07.499Z,69.37
2019-03-26T12:14:36.040Z,70.84
2019-03-26T12:17:04.668Z,70.57
2019-03-26T12:19:33.386Z,71.05
2019-03-26T12:22:03.558Z,70.10
2019-03-26T12:24:32.185Z,71.33
2019-03-26T12:27:00.703Z,71.60
2019-03-26T12:29:29.572Z,71.67
2019-03-26T12:31:58.050Z,71.59
2019-03-26T12:34:26.524Z,71.83
2019-03-26T12:36:55.053Z,71.55
2019-03-26T12:39:23.541Z,70.92
2019-03-26T12:41:52.076Z,70.28
2019-03-26T12:44:20.586Z,69.88
2019-03-26T12:46:49.133Z,69.80
2019-03-26T12:49:17.675Z,69.52
2019-03-26T12:51:46.656Z,69.15
2019-03-26T12:54:15.135Z,69.43
2019-03-26T12:56:43.659Z,69.02
2019-03-26T12:59:12.415Z,69.07
2019-03-26T13:01:40.897Z,68.99
2019-03-26T13:04:13.346Z,68.84
2019-03-26T13:06:39.753Z,68.48
2019-03-26T13:09:09.294Z,68.42
2019-03-26T13:11:38.066Z,68.28
2019-03-26T13:14:06.745Z,68.27
2019-03-26T13:16:35.225Z,68.34
2019-03-26T13:19:03.702Z,67.72
2019-03-26T13:21:32.200Z,67.46
2019-03-26T13:24:00.748Z,67.33
2019-03-26T13:26:29.562Z,67.38
2019-03-26T13:28:58.526Z,66.98
2019-03-26T13:31:27.006Z,66.90
2019-03-26T13:33:55.496Z,66.62
2019-03-26T13:36:24.131Z,66.81
2019-03-26T13:38:52.627Z,66.00
2019-03-26T13:41:23.640Z,65.63
2019-03-26T13:43:52.221Z,65.88
2019-03-26T13:46:20.735Z,64.86
2019-03-26T13:48:49.218Z,65.05
2019-03-26T13:51:18.296Z,65.25
2019-03-26T13:53:46.858Z,65.87
2019-03-26T13:56:15.325Z,66.45
2019-03-26T13:58:44.140Z,66.97
2019-03-26T14:01:12.782Z,65.89
2019-03-26T14:03:41.231Z,65.57
2019-03-26T14:06:10.409Z,65.14
2019-03-26T14:08:38.983Z,63.36
2019-03-26T14:11:07.635Z,63.12
2019-03-26T14:13:36.325Z,63.07
2019-03-26T14:16:04.800Z,63.23
2019-03-26T14:18:33.277Z,62.91
2019-03-26T14:21:01.923Z,63.25
2019-03-26T14:23:30.376Z,63.55
2019-03-26T14:25:58.849Z,62.90
2019-03-26T14:28:27.379Z,62.53
2019-03-26T14:30:56.098Z,62.76
2019-03-26T14:33:24.588Z,62.91
2019-03-26T14:35:53.196Z,63.33
2019-03-26T14:38:21.657Z,63.45
2019-03-26T14:40:55.348Z,63.64
2019-03-26T14:43:20.535Z,63.99
2019-03-26T14:45:49.025Z,65.03
2019-03-26T14:48:18.174Z,66.22
2019-03-26T14:50:46.751Z,66.76
2019-03-26T14:53:15.313Z,67.15
2019-03-26T14:55:43.988Z,66.92
2019-03-26T14:58:12.721Z,66.88
2019-03-26T15:00:41.339Z,66.97
2019-03-26T15:03:09.933Z,67.03
2019-03-26T15:05:38.706Z,67.60
2019-03-26T15:08:07.225Z,67.92
2019-03-26T15:10:35.709Z,68.21
2019-03-26T15:13:04.517Z,67.95
2019-03-26T15:15:36.402Z,68.17
2019-03-26T15:18:03.207Z,68.47
2019-03-26T15:20:31.906Z,69.05
2019-03-26T15:23:00.391Z,68.75
2019-03-26T15:25:28.873Z,68.37
2019-03-26T15:27:57.480Z,67.69
2019-03-26T15:30:26.225Z,67.92
2019-03-26T15:32:54.703Z,67.83
2019-03-26T15:35:24.013Z,67.96
2019-03-26T15:37:53.502Z,67.86
2019-03-26T15:40:22.348Z,67.62
2019-03-26T15:42:50.848Z,67.56
2019-03-26T15:45:19.664Z,67.80
2019-03-26T15:47:48.530Z,68.42
2019-03-26T15:50:20.056Z,68.54
2019-03-26T15:52:48.567Z,68.74
2019-03-26T15:55:17.097Z,68.98
2019-03-26T15:57:46.258Z,69.44
2019-03-26T16:00:17.815Z,69.63
2019-03-26T16:02:46.460Z,69.87
2019-03-26T16:05:15.032Z,70.19
2019-03-26T16:07:43.546Z,70.83
2019-03-26T16:10:12.558Z,71.36
2019-03-26T16:12:41.624Z,72.39
2019-03-26T16:15:10.327Z,72.91
2019-03-26T16:17:39.145Z,73.46
2019-03-26T16:20:08.914Z,75.65
2019-03-26T16:22:37.403Z,75.86
2019-03-26T16:25:06.879Z,76.40
2019-03-26T16:27:35.600Z,78.16
2019-03-26T16:30:05.911Z,79.07
2019-03-26T16:32:34.450Z,79.18
2019-03-26T16:35:02.964Z,80.16
2019-03-26T16:37:32.194Z,80.78
2019-03-26T16:40:00.702Z,81.96
2019-03-26T16:42:30.552Z,81.74
2019-03-26T16:44:59.071Z,82.68
2019-03-26T16:47:29.297Z,83.06
2019-03-26T16:49:57.769Z,82.97
2019-03-26T16:52:26.754Z,83.16
2019-03-26T16:54:55.937Z,83.43
2019-03-26T16:57:26.601Z,83.62
2019-03-26T16:59:55.119Z,84.57
2019-03-26T17:02:23.662Z,83.94
2019-03-26T17:04:52.337Z,84.75
2019-03-26T17:07:20.976Z,84.89
2019-03-26T17:09:49.515Z,85.22
2019-03-26T17:12:18.309Z,85.32
2019-03-26T17:14:46.779Z,85.97
2019-03-26T17:17:15.591Z,85.70
2019-03-26T17:19:44.169Z,85.70
2019-03-26T17:22:12.642Z,86.67
2019-03-26T17:24:41.204Z,86.07
2019-03-26T17:27:09.796Z,86.02
2019-03-26T17:29:38.289Z,86.20
2019-03-26T17:32:06.792Z,86.15
2019-03-26T17:34:35.273Z,86.07
2019-03-26T17:37:03.794Z,86.17
2019-03-26T17:39:32.377Z,86.30
2019-03-26T17:42:00.902Z,86.50
2019-03-26T17:44:29.760Z,86.06
2019-03-26T17:46:58.761Z,86.32
2019-03-26T17:49:27.248Z,86.19
2019-03-26T17:51:56.917Z,86.33
2019-03-26T17:54:25.500Z,86.22
2019-03-26T17:56:54.193Z,86.40
2019-03-26T17:59:22.651Z,86.68
2019-03-26T18:01:54.374Z,86.82
2019-03-26T18:04:21.463Z,86.90
2019-03-26T18:06:49.956Z,86.70
2019-03-26T18:09:18.806Z,86.75
2019-03-26T18:11:47.537Z,87.28
2019-03-26T18:14:16.301Z,87.17
2019-03-26T18:16:44.946Z,87.12
2019-03-26T18:19:13.514Z,87.64
2019-03-26T18:21:51.413Z,87.15
2019-03-26T18:24:12.762Z,87.20
2019-03-26T18:26:41.258Z,87.52
2019-03-26T18:29:09.812Z,87.46
2019-03-26T18:31:38.375Z,87.67
2019-03-26T18:34:07.388Z,87.42
2019-03-26T18:36:35.847Z,87.65
2019-03-26T18:39:06.982Z,87.64
2019-03-26T18:41:35.620Z,87.68
2019-03-26T18:44:04.146Z,87.80
2019-03-26T18:46:32.715Z,87.80
2019-03-26T18:49:01.188Z,87.73
2019-03-26T18:51:29.678Z,87.65
2019-03-26T18:53:58.192Z,87.96
2019-03-26T18:56:26.686Z,88.01
2019-03-26T18:58:55.624Z,88.26
2019-03-26T19:01:24.626Z,88.27
2019-03-26T19:03:53.283Z,88.29
2019-03-26T19:06:21.738Z,88.21
2019-03-26T19:08:50.482Z,87.93
2019-03-26T19:11:18.950Z,87.85
2019-03-26T19:13:47.443Z,87.95
2019-03-26T19:16:15.963Z,87.56
2019-03-26T19:18:44.472Z,87.62
2019-03-26T19:21:12.941Z,87.53
2019-03-26T19:23:41.507Z,87.50
2019-03-26T19:26:09.999Z,87.30
2019-03-26T19:28:40.416Z,87.20
2019-03-26T19:31:09.356Z,87.04
2019-03-26T19:33:37.866Z,87.03
2019-03-26T19:36:06.422Z,87.04
2019-03-26T19:38:34.962Z,86.94
2019-03-26T19:41:03.866Z,86.82
2019-03-26T19:43:32.351Z,86.73
2019-03-26T19:46:02.137Z,86.64
2019-03-26T19:48:33.146Z,86.58
2019-03-26T19:51:01.748Z,86.46
2019-03-26T19:53:30.283Z,86.36
2019-03-26T19:55:58.912Z,86.04
2019-03-26T19:58:27.754Z,86.10
2019-03-26T20:00:56.298Z,86.18
2019-03-26T20:03:25.163Z,86.01
2019-03-26T20:05:53.687Z,85.83
2019-03-26T20:08:22.240Z,85.79
2019-03-26T20:10:50.814Z,85.72
2019-03-26T20:13:24.552Z,85.63
2019-03-26T20:15:49.791Z,85.53
2019-03-26T20:18:18.490Z,85.52
2019-03-26T20:20:47.158Z,85.59
2019-03-26T20:23:15.744Z,85.75
2019-03-26T20:25:44.299Z,85.61
2019-03-26T20:28:14.293Z,85.69
2019-03-26T20:30:42.881Z,85.66
2019-03-26T20:33:11.429Z,85.74
2019-03-26T20:35:40.097Z,85.98
2019-03-26T20:38:08.640Z,85.85
2019-03-26T20:40:37.110Z,85.83
2019-03-26T20:43:05.609Z,86.23
2019-03-26T20:45:34.555Z,86.02
2019-03-26T20:48:04.567Z,86.05
2019-03-26T20:50:33.210Z,86.04
2019-03-26T20:53:01.731Z,86.16
2019-03-26T20:55:32.370Z,86.12
2019-03-26T20:58:01.212Z,86.17
2019-03-26T21:00:41.053Z,86.15
2019-03-26T21:03:09.680Z,86.22
2019-03-26T21:05:38.240Z,86.23
2019-03-26T21:08:06.905Z,86.31
2019-03-26T21:10:35.466Z,86.22
2019-03-26T21:13:04.309Z,86.17
2019-03-26T21:15:32.905Z,86.17
2019-03-26T21:18:01.865Z,86.23
2019-03-26T21:20:30.331Z,86.25
2019-03-26T21:22:59.122Z,86.27
2019-03-26T21:25:27.576Z,86.30
2019-03-26T21:27:56.066Z,86.40
2019-03-26T21:30:24.827Z,86.40
2019-03-26T21:32:53.508Z,86.44
2019-03-26T21:35:21.995Z,86.46
2019-03-26T21:37:50.665Z,86.52
2019-03-26T21:40:20.239Z,86.44
2019-03-26T21:42:48.866Z,86.36
2019-03-26T21:45:19.254Z,86.35
2019-03-26T21:47:47.749Z,86.52
2019-03-26T21:50:16.371Z,86.40
2019-03-26T21:52:44.917Z,86.41
2019-03-26T21:55:13.754Z,86.35
2019-03-26T21:57:42.274Z,86.30
2019-03-26T22:00:11.854Z,86.24
2019-03-26T22:02:40.514Z,86.30
2019-03-26T22:05:10.022Z,86.31
2019-03-26T22:07:38.603Z,86.35
2019-03-26T22:10:08.094Z,86.30
2019-03-26T22:12:36.656Z,86.25
2019-03-26T22:15:10.230Z,86.51
2019-03-26T22:17:38.986Z,86.54
2019-03-26T22:20:08.016Z,86.67
2019-03-26T22:22:37.073Z,86.66
2019-03-26T22:25:09.315Z,86.65
2019-03-26T22:27:37.828Z,86.63
2019-03-26T22:30:09.582Z,86.55
2019-03-26T22:32:38.060Z,86.47
2019-03-26T22:35:08.614Z,86.39
2019-03-26T22:37:37.202Z,86.37
2019-03-26T22:40:09.133Z,86.33
2019-03-26T22:42:37.770Z,86.27
2019-03-26T22:45:09.938Z,86.22
2019-03-26T22:47:39.961Z,86.19
2019-03-26T22:50:10.164Z,86.15
2019-03-26T22:52:38.919Z,86.17
2019-03-26T22:55:11.120Z,86.10
2019-03-26T22:57:40.049Z,86.10
2019-03-26T23:00:14.767Z,86.04
2019-03-26T23:02:43.233Z,85.65
2019-03-26T23:05:12.979Z,85.67
2019-03-26T23:07:41.511Z,85.69
2019-03-26T23:10:11.053Z,85.60
2019-03-26T23:12:39.805Z,85.64
2019-03-26T23:15:16.997Z,85.57
2019-03-26T23:17:45.665Z,85.39
2019-03-26T23:20:14.806Z,85.27
2019-03-26T23:22:43.987Z,85.15
2019-03-26T23:25:12.975Z,85.04
2019-03-26T23:27:41.634Z,84.99
2019-03-26T23:30:11.275Z,85.03
2019-03-26T23:32:39.980Z,85.09
2019-03-26T23:35:08.697Z,84.98
2019-03-26T23:37:37.216Z,85.06
2019-03-26T23:40:06.120Z,85.03
2019-03-26T23:42:34.607Z,84.99
2019-03-26T23:45:03.782Z,85.12
2019-03-26T23:47:32.244Z,85.24
2019-03-26T23:50:00.721Z,85.34
2019-03-26T23:52:29.273Z,85.55
2019-03-26T23:54:57.747Z,85.76
2019-03-26T23:57:26.213Z,85.61
2019-03-26T23:59:54.904Z,85.71
